createdAt,value
2016-07-27T00:00:36.692Z,0
2016-07-27T00:01:37.426Z,0
2016-07-27T00:02:36.683Z,0
2016-07-27T00:03:36.651Z,0
2016-07-27T00:04:36.705Z,0
2016-07-27T00:05:36.731Z,0
2016-07-27T00:06:36.711Z,0
2016-07-27T00:07:36.757Z,0
2016-07-27T00:08:36.706Z,0
2016-07-27T00:09:36.718Z,0
2016-07-27T00:10:36.771Z,0
2016-07-27T00:11:36.731Z,0
2016-07-27T00:12:36.778Z,0
2016-07-27T00:13:36.764Z,0
2016-07-27T00:14:36.756Z,0
2016-07-27T00:15:36.814Z,0
2016-07-27T00:16:36.789Z,0
2016-07-27T00:17:36.812Z,0
2016-07-27T00:18:36.822Z,0
2016-07-27T00:19:36.840Z,0
2016-07-27T00:20:36.859Z,0
2016-07-27T00:21:36.850Z,0
2016-07-27T00:22:36.813Z,0
2016-07-27T00:23:36.884Z,0
2016-07-27T00:24:36.818Z,0
2016-07-27T00:25:36.899Z,0
2016-07-27T00:26:36.929Z,0
2016-07-27T00:27:36.876Z,0
2016-07-27T00:28:36.921Z,0
2016-07-27T00:29:36.902Z,0
2016-07-27T00:30:36.930Z,0
2016-07-27T00:31:36.906Z,0
2016-07-27T00:32:36.985Z,0
2016-07-27T00:33:36.932Z,0
2016-07-27T00:34:36.935Z,0
2016-07-27T00:35:36.930Z,0
2016-07-27T00:36:36.986Z,0
2016-07-27T00:37:37.026Z,0
2016-07-27T00:38:36.973Z,0
2016-07-27T00:39:36.990Z,0
2016-07-27T00:40:37.007Z,0
2016-07-27T00:41:37.013Z,0
2016-07-27T00:42:37.026Z,0
2016-07-27T00:43:37.033Z,0
2016-07-27T00:44:37.010Z,0
2016-07-27T00:45:37.048Z,0
2016-07-27T00:46:37.044Z,0
2016-07-27T00:47:37.056Z,0
2016-07-27T00:48:37.070Z,0
2016-07-27T00:49:37.120Z,0
2016-07-27T00:50:37.072Z,0
2016-07-27T00:51:37.115Z,0
2016-07-27T00:52:37.082Z,0
2016-07-27T00:53:37.089Z,0
2016-07-27T00:54:37.135Z,0
2016-07-27T00:55:37.128Z,0
2016-07-27T00:56:37.146Z,0
2016-07-27T00:57:37.151Z,0
2016-07-27T00:58:37.165Z,0
2016-07-27T00:59:37.176Z,0
2016-07-27T01:00:37.159Z,0
2016-07-27T01:01:37.167Z,0
2016-07-27T01:02:37.156Z,0
2016-07-27T01:03:37.169Z,0
2016-07-27T01:04:37.199Z,0
2016-07-27T01:05:37.915Z,0
2016-07-27T01:06:37.205Z,0
2016-07-27T01:07:37.217Z,0
2016-07-27T01:08:37.217Z,0
2016-07-27T01:09:37.283Z,0
2016-07-27T01:10:37.263Z,0
2016-07-27T01:11:37.260Z,0
2016-07-27T01:12:37.301Z,0
2016-07-27T01:13:37.280Z,0
2016-07-27T01:14:37.257Z,0
2016-07-27T01:15:37.297Z,0
2016-07-27T01:16:37.332Z,0
2016-07-27T01:17:37.313Z,0
2016-07-27T01:18:37.338Z,0
2016-07-27T01:19:37.307Z,0
2016-07-27T01:20:37.312Z,0
2016-07-27T01:21:37.391Z,0
2016-07-27T01:22:37.340Z,0
2016-07-27T01:23:37.390Z,0
2016-07-27T01:24:37.405Z,0
2016-07-27T01:25:37.439Z,0
2016-07-27T01:26:37.405Z,0
2016-07-27T01:27:37.414Z,0
2016-07-27T01:28:37.415Z,0
2016-07-27T01:29:37.420Z,0
2016-07-27T01:30:37.451Z,0
2016-07-27T01:31:37.438Z,0
2016-07-27T01:32:37.496Z,0
2016-07-27T01:33:37.469Z,0
2016-07-27T01:34:37.446Z,0
2016-07-27T01:35:37.512Z,0
2016-07-27T01:36:37.536Z,0
2016-07-27T01:37:37.491Z,0
2016-07-27T01:38:37.518Z,0
2016-07-27T01:39:37.477Z,0
2016-07-27T01:40:37.482Z,0
2016-07-27T01:41:37.532Z,0
2016-07-27T01:42:37.513Z,0
2016-07-27T01:43:37.528Z,0
2016-07-27T01:44:37.537Z,0
2016-07-27T01:45:37.547Z,0
2016-07-27T01:46:37.561Z,0
2016-07-27T01:47:37.575Z,0
2016-07-27T01:48:37.564Z,0
2016-07-27T01:49:37.607Z,0
2016-07-27T01:50:37.599Z,0
2016-07-27T01:52:37.625Z,0
2016-07-27T01:53:37.607Z,0
2016-07-27T01:54:37.669Z,0
2016-07-27T01:55:37.655Z,0
2016-07-27T01:56:37.655Z,0
2016-07-27T01:57:37.630Z,0
2016-07-27T01:58:37.687Z,0
2016-07-27T01:59:37.677Z,0
2016-07-27T02:00:37.696Z,0
2016-07-27T02:01:37.702Z,0
2016-07-27T02:02:37.660Z,0
2016-07-27T02:03:37.717Z,0
2016-07-27T02:04:37.731Z,0
2016-07-27T02:05:37.764Z,0
2016-07-27T02:07:37.759Z,0
2016-07-27T02:08:37.758Z,0
2016-07-27T02:09:37.720Z,0
2016-07-27T02:10:37.779Z,0
2016-07-27T02:11:37.805Z,0
2016-07-27T02:12:37.797Z,0
2016-07-27T02:13:37.768Z,0
2016-07-27T02:14:37.782Z,0
2016-07-27T02:15:37.820Z,0
2016-07-27T02:16:37.823Z,0
2016-07-27T02:17:37.807Z,0
2016-07-27T02:18:37.825Z,0
2016-07-27T02:19:37.860Z,0
2016-07-27T02:20:37.862Z,0
2016-07-27T02:22:37.880Z,0
2016-07-27T02:23:37.868Z,0
2016-07-27T02:24:37.898Z,0
2016-07-27T02:25:37.923Z,0
2016-07-27T02:26:37.895Z,0
2016-07-27T02:27:37.877Z,0
2016-07-27T02:28:37.951Z,0
2016-07-27T02:29:37.942Z,0
2016-07-27T02:30:37.967Z,0
2016-07-27T02:31:37.922Z,0
2016-07-27T02:32:37.912Z,0
2016-07-27T02:33:37.912Z,0
2016-07-27T02:34:38.704Z,0
2016-07-27T02:35:37.984Z,0
2016-07-27T02:37:38.059Z,0
2016-07-27T02:38:38.018Z,0
2016-07-27T02:39:38.019Z,0
2016-07-27T02:40:38.049Z,0
2016-07-27T02:41:38.045Z,0
2016-07-27T02:42:38.030Z,0
2016-07-27T02:43:38.030Z,0
2016-07-27T02:44:38.055Z,0
2016-07-27T02:45:38.073Z,0
2016-07-27T02:46:38.060Z,0
2016-07-27T02:47:38.059Z,0
2016-07-27T02:48:38.063Z,0
2016-07-27T02:49:38.061Z,0
2016-07-27T02:50:38.142Z,0
2016-07-27T02:52:38.079Z,0
2016-07-27T02:53:38.076Z,0
2016-07-27T02:54:38.119Z,0
2016-07-27T02:55:38.150Z,0
2016-07-27T02:56:38.167Z,0
2016-07-27T02:57:38.175Z,0
2016-07-27T02:58:38.194Z,0
2016-07-27T02:59:38.175Z,0
2016-07-27T03:00:38.155Z,0
2016-07-27T03:01:38.201Z,0
2016-07-27T03:02:38.207Z,0
2016-07-27T03:03:38.189Z,0
2016-07-27T03:04:38.213Z,0
2016-07-27T03:05:38.190Z,0
2016-07-27T03:06:38.288Z,0
2016-07-27T03:07:38.239Z,0
2016-07-27T03:08:38.275Z,0
2016-07-27T03:09:38.274Z,0
2016-07-27T03:10:38.241Z,0
2016-07-27T03:11:38.294Z,0
2016-07-27T03:12:38.300Z,0
2016-07-27T03:13:38.354Z,0
2016-07-27T03:14:38.354Z,0
2016-07-27T03:15:38.311Z,0
2016-07-27T03:16:39.030Z,0
2016-07-27T03:17:38.386Z,0
2016-07-27T03:18:38.359Z,0
2016-07-27T03:19:38.344Z,0
2016-07-27T03:20:38.377Z,0
2016-07-27T03:21:38.377Z,0
2016-07-27T03:22:38.395Z,0
2016-07-27T03:23:38.359Z,0
2016-07-27T03:24:38.376Z,0
2016-07-27T03:25:38.404Z,0
2016-07-27T03:26:38.411Z,0
2016-07-27T03:27:38.418Z,0
2016-07-27T03:28:38.443Z,0
2016-07-27T03:29:38.405Z,0
2016-07-27T03:30:38.454Z,0
2016-07-27T03:31:38.423Z,0
2016-07-27T03:32:38.487Z,0
2016-07-27T03:33:38.667Z,0
2016-07-27T03:34:38.469Z,0
2016-07-27T03:35:38.530Z,0
2016-07-27T03:36:38.494Z,0
2016-07-27T03:37:38.529Z,0
2016-07-27T03:38:38.461Z,0
2016-07-27T03:39:38.533Z,0
2016-07-27T03:40:38.514Z,0
2016-07-27T03:41:38.539Z,0
2016-07-27T03:42:38.598Z,0
2016-07-27T03:43:38.575Z,0
2016-07-27T03:44:38.514Z,0
2016-07-27T03:45:38.554Z,0
2016-07-27T03:46:38.597Z,0
2016-07-27T03:47:38.582Z,0
2016-07-27T03:48:38.592Z,0
2016-07-27T03:49:38.617Z,0
2016-07-27T03:50:38.616Z,0
2016-07-27T03:51:38.643Z,0
2016-07-27T03:52:39.374Z,0
2016-07-27T03:53:39.423Z,0
2016-07-27T03:54:38.665Z,0
2016-07-27T03:55:38.627Z,0
2016-07-27T03:56:38.686Z,0
2016-07-27T03:57:38.702Z,0
2016-07-27T03:58:38.667Z,0
2016-07-27T03:59:38.660Z,0
2016-07-27T04:00:38.682Z,0
2016-07-27T04:01:38.696Z,0
2016-07-27T04:02:38.733Z,0
2016-07-27T04:03:38.714Z,0
2016-07-27T04:04:38.700Z,0
2016-07-27T04:05:38.704Z,0
2016-07-27T04:06:38.779Z,0
2016-07-27T04:07:38.722Z,0
2016-07-27T04:08:38.767Z,0
2016-07-27T04:09:38.772Z,0
2016-07-27T04:10:38.741Z,0
2016-07-27T04:11:38.820Z,0
2016-07-27T04:12:38.774Z,0
2016-07-27T04:13:38.783Z,0
2016-07-27T04:14:38.824Z,0
2016-07-27T04:15:38.776Z,0
2016-07-27T04:16:38.834Z,0
2016-07-27T04:17:38.781Z,0
2016-07-27T04:18:38.861Z,0
2016-07-27T04:19:38.805Z,0
2016-07-27T04:20:38.842Z,0
2016-07-27T04:21:38.899Z,0
2016-07-27T04:22:38.878Z,0
2016-07-27T04:23:38.883Z,0
2016-07-27T04:24:38.883Z,0
2016-07-27T04:25:38.929Z,0
2016-07-27T04:26:38.891Z,5
2016-07-27T04:27:38.917Z,0
2016-07-27T04:28:38.894Z,0
2016-07-27T04:29:38.934Z,5
2016-07-27T04:30:38.924Z,5
2016-07-27T04:31:38.945Z,5
2016-07-27T04:32:38.962Z,5
2016-07-27T04:33:39.081Z,5
2016-07-27T04:34:38.940Z,5
2016-07-27T04:35:38.979Z,5
2016-07-27T04:36:38.962Z,5
2016-07-27T04:37:38.991Z,5
2016-07-27T04:38:38.996Z,5
2016-07-27T04:39:39.019Z,5
2016-07-27T04:40:39.076Z,5
2016-07-27T04:41:39.022Z,10
2016-07-27T04:42:39.041Z,10
2016-07-27T04:43:39.804Z,10
2016-07-27T04:44:39.044Z,10
2016-07-27T04:45:39.075Z,10
2016-07-27T04:46:39.111Z,10
2016-07-27T04:47:39.098Z,10
2016-07-27T04:48:39.082Z,10
2016-07-27T04:49:39.109Z,10
2016-07-27T04:50:39.123Z,10
2016-07-27T04:51:39.095Z,10
2016-07-27T04:52:39.111Z,10
2016-07-27T04:53:39.171Z,10
2016-07-27T04:54:39.161Z,10
2016-07-27T04:55:39.163Z,10
2016-07-27T04:56:39.160Z,10
2016-07-27T04:57:39.204Z,10
2016-07-27T04:58:39.170Z,10
2016-07-27T04:59:39.214Z,10
2016-07-27T05:00:39.189Z,10
2016-07-27T05:01:39.231Z,10
2016-07-27T05:02:39.234Z,5
2016-07-27T05:03:39.216Z,10
2016-07-27T05:04:39.208Z,5
2016-07-27T05:05:39.941Z,5
2016-07-27T05:06:39.245Z,10
2016-07-27T05:07:39.242Z,10
2016-07-27T05:08:39.256Z,10
2016-07-27T05:09:39.255Z,5
2016-07-27T05:10:39.261Z,10
2016-07-27T05:11:39.262Z,10
2016-07-27T05:12:39.328Z,10
2016-07-27T05:13:39.320Z,10
2016-07-27T05:14:39.323Z,10
2016-07-27T05:15:39.330Z,10
2016-07-27T05:16:39.279Z,10
2016-07-27T05:17:39.358Z,10
2016-07-27T05:18:39.359Z,15
2016-07-27T05:19:39.355Z,15
2016-07-27T05:20:39.407Z,15
2016-07-27T05:21:39.387Z,15
2016-07-27T05:22:39.384Z,10
2016-07-27T05:23:39.410Z,15
2016-07-27T05:24:39.415Z,15
2016-07-27T05:25:39.397Z,15
2016-07-27T05:26:39.413Z,15
2016-07-27T05:27:39.385Z,15
2016-07-27T05:28:39.442Z,15
2016-07-27T05:29:39.418Z,15
2016-07-27T05:30:39.463Z,15
2016-07-27T05:31:39.463Z,15
2016-07-27T05:32:39.499Z,15
2016-07-27T05:33:39.532Z,15
2016-07-27T05:34:39.528Z,15
2016-07-27T05:35:40.210Z,15
2016-07-27T05:36:39.492Z,15
2016-07-27T05:37:39.514Z,15
2016-07-27T05:38:39.550Z,15
2016-07-27T05:39:39.496Z,15
2016-07-27T05:40:39.543Z,15
2016-07-27T05:41:39.552Z,15
2016-07-27T05:42:39.574Z,15
2016-07-27T05:43:39.623Z,15
2016-07-27T05:44:39.596Z,15
2016-07-27T05:45:39.576Z,15
2016-07-27T05:46:39.621Z,15
2016-07-27T05:47:39.583Z,15
2016-07-27T05:48:39.631Z,10
2016-07-27T05:49:39.621Z,10
2016-07-27T05:50:39.637Z,10
2016-07-27T05:51:39.628Z,10
2016-07-27T05:52:39.693Z,15
2016-07-27T05:53:39.648Z,15
2016-07-27T05:54:39.648Z,15
2016-07-27T05:55:39.685Z,15
2016-07-27T05:56:39.678Z,10
2016-07-27T05:57:39.718Z,10
2016-07-27T05:58:39.684Z,15
2016-07-27T05:59:39.701Z,10
2016-07-27T06:00:39.728Z,10
2016-07-27T06:01:39.741Z,15
2016-07-27T06:02:39.735Z,15
2016-07-27T06:03:39.715Z,15
2016-07-27T06:04:39.774Z,15
2016-07-27T06:05:39.731Z,15
2016-07-27T06:06:39.739Z,15
2016-07-27T06:07:39.810Z,15
2016-07-27T06:08:39.772Z,15
2016-07-27T06:09:39.837Z,15
2016-07-27T06:10:39.794Z,15
2016-07-27T06:11:39.807Z,15
2016-07-27T06:12:39.814Z,15
2016-07-27T06:13:39.837Z,15
2016-07-27T06:14:39.821Z,15
2016-07-27T06:15:39.834Z,20
2016-07-27T06:16:39.855Z,20
2016-07-27T06:17:39.902Z,20
2016-07-27T06:18:39.841Z,20
2016-07-27T06:19:39.864Z,25
2016-07-27T06:20:40.616Z,20
2016-07-27T06:21:39.905Z,20
2016-07-27T06:22:39.887Z,20
2016-07-27T06:23:39.933Z,20
2016-07-27T06:24:39.939Z,20
2016-07-27T06:25:39.912Z,20
2016-07-27T06:26:39.943Z,20
2016-07-27T06:27:39.942Z,20
2016-07-27T06:28:39.958Z,20
2016-07-27T06:29:39.940Z,20
2016-07-27T06:30:39.953Z,20
2016-07-27T06:31:39.956Z,20
2016-07-27T06:32:39.983Z,20
2016-07-27T06:33:40.176Z,20
2016-07-27T06:34:39.970Z,20
2016-07-27T06:35:39.955Z,20
2016-07-27T06:36:40.011Z,20
2016-07-27T06:37:40.029Z,20
2016-07-27T06:38:39.987Z,15
2016-07-27T06:39:40.045Z,15
2016-07-27T06:40:40.060Z,15
2016-07-27T06:41:40.076Z,15
2016-07-27T06:42:40.068Z,15
2016-07-27T06:43:40.081Z,15
2016-07-27T06:44:40.049Z,15
2016-07-27T06:45:40.052Z,15
2016-07-27T06:46:40.079Z,15
2016-07-27T06:47:40.115Z,15
2016-07-27T06:48:40.144Z,15
2016-07-27T06:49:40.134Z,15
2016-07-27T06:50:40.132Z,15
2016-07-27T06:51:40.172Z,15
2016-07-27T06:52:40.130Z,20
2016-07-27T06:53:40.154Z,20
2016-07-27T06:54:40.200Z,20
2016-07-27T06:55:40.201Z,20
2016-07-27T06:56:40.185Z,20
2016-07-27T06:57:40.191Z,20
2016-07-27T06:58:40.199Z,20
2016-07-27T06:59:40.209Z,20
2016-07-27T07:00:40.173Z,20
2016-07-27T07:01:40.260Z,20
2016-07-27T07:02:40.214Z,20
2016-07-27T07:03:40.247Z,20
2016-07-27T07:04:40.253Z,20
2016-07-27T07:05:40.253Z,20
2016-07-27T07:06:40.253Z,20
2016-07-27T07:07:40.258Z,20
2016-07-27T07:08:40.298Z,20
2016-07-27T07:09:40.284Z,20
2016-07-27T07:10:40.349Z,20
2016-07-27T07:11:40.313Z,20
2016-07-27T07:12:40.295Z,20
2016-07-27T07:13:40.347Z,20
2016-07-27T07:14:40.346Z,20
2016-07-27T07:15:40.365Z,20
2016-07-27T07:16:40.332Z,20
2016-07-27T07:17:40.393Z,20
2016-07-27T07:18:40.402Z,20
2016-07-27T07:19:40.432Z,20
2016-07-27T07:20:40.391Z,20
2016-07-27T07:21:40.392Z,20
2016-07-27T07:22:40.408Z,20
2016-07-27T07:23:40.457Z,20
2016-07-27T07:24:40.431Z,20
2016-07-27T07:25:41.117Z,20
2016-07-27T07:26:40.433Z,20
2016-07-27T07:27:40.432Z,20
2016-07-27T07:28:41.207Z,20
2016-07-27T07:29:40.436Z,20
2016-07-27T07:30:40.484Z,20
2016-07-27T07:31:40.459Z,20
2016-07-27T07:32:40.485Z,20
2016-07-27T07:33:40.532Z,20
2016-07-27T07:34:40.480Z,20
2016-07-27T07:35:40.533Z,20
2016-07-27T07:36:41.231Z,20
2016-07-27T07:37:40.569Z,20
2016-07-27T07:38:40.556Z,20
2016-07-27T07:39:40.527Z,20
2016-07-27T07:40:40.587Z,20
2016-07-27T07:41:40.588Z,20
2016-07-27T07:42:40.567Z,20
2016-07-27T07:43:40.600Z,20
2016-07-27T07:44:40.621Z,20
2016-07-27T07:45:40.615Z,20
2016-07-27T07:46:40.637Z,20
2016-07-27T07:47:40.625Z,20
2016-07-27T07:48:40.630Z,20
2016-07-27T07:49:40.637Z,20
2016-07-27T07:50:40.610Z,20
2016-07-27T07:51:40.634Z,20
2016-07-27T07:52:40.690Z,20
2016-07-27T07:53:40.690Z,25
2016-07-27T07:54:40.657Z,25
2016-07-27T07:55:40.749Z,25
2016-07-27T07:56:40.692Z,25
2016-07-27T07:57:40.729Z,25
2016-07-27T07:58:40.707Z,25
2016-07-27T07:59:40.746Z,25
2016-07-27T08:00:40.746Z,25
2016-07-27T08:01:40.773Z,25
2016-07-27T08:02:40.764Z,25
2016-07-27T08:03:40.720Z,25
2016-07-27T08:04:40.783Z,25
2016-07-27T08:05:40.783Z,25
2016-07-27T08:06:40.786Z,25
2016-07-27T08:07:40.815Z,25
2016-07-27T08:08:40.787Z,25
2016-07-27T08:09:40.809Z,25
2016-07-27T08:11:40.796Z,30
2016-07-27T08:12:40.880Z,30
2016-07-27T08:13:40.827Z,30
2016-07-27T08:14:40.827Z,30
2016-07-27T08:15:40.860Z,30
2016-07-27T08:16:40.868Z,30
2016-07-27T08:17:40.870Z,30
2016-07-27T08:18:40.942Z,30
2016-07-27T08:19:40.918Z,30
2016-07-27T08:20:40.917Z,30
2016-07-27T08:21:40.918Z,30
2016-07-27T08:22:40.974Z,30
2016-07-27T08:23:40.967Z,30
2016-07-27T08:24:40.975Z,30
2016-07-27T08:25:40.977Z,30
2016-07-27T08:26:40.983Z,30
2016-07-27T08:27:40.980Z,30
2016-07-27T08:28:41.023Z,30
2016-07-27T08:29:41.740Z,30
2016-07-27T08:30:40.974Z,30
2016-07-27T08:31:40.974Z,30
2016-07-27T08:32:41.001Z,30
2016-07-27T08:33:41.058Z,30
2016-07-27T08:34:41.033Z,30
2016-07-27T08:35:41.076Z,30
2016-07-27T08:36:41.075Z,30
2016-07-27T08:38:41.078Z,30
2016-07-27T08:39:41.055Z,30
2016-07-27T08:40:41.100Z,30
2016-07-27T08:41:41.064Z,30
2016-07-27T08:42:41.097Z,30
2016-07-27T08:43:41.103Z,30
2016-07-27T08:44:41.102Z,30
2016-07-27T08:45:41.148Z,25
2016-07-27T08:46:41.120Z,30
2016-07-27T08:47:41.158Z,30
2016-07-27T08:48:41.117Z,30
2016-07-27T08:49:41.122Z,30
2016-07-27T08:50:41.901Z,30
2016-07-27T08:51:41.204Z,30
2016-07-27T08:52:41.219Z,30
2016-07-27T08:53:41.217Z,30
2016-07-27T08:54:41.218Z,30
2016-07-27T08:55:41.227Z,30
2016-07-27T08:56:41.196Z,30
2016-07-27T08:57:41.220Z,30
2016-07-27T08:58:41.227Z,25
2016-07-27T08:59:41.255Z,25
2016-07-27T09:00:41.261Z,25
2016-07-27T09:01:41.219Z,25
2016-07-27T09:02:41.308Z,25
2016-07-27T09:03:41.267Z,25
2016-07-27T09:04:41.324Z,25
2016-07-27T09:05:41.315Z,25
2016-07-27T09:06:41.319Z,25
2016-07-27T09:07:41.382Z,25
2016-07-27T09:08:41.355Z,25
2016-07-27T09:09:41.363Z,25
2016-07-27T09:10:41.340Z,25
2016-07-27T09:11:41.342Z,25
2016-07-27T09:12:41.374Z,25
2016-07-27T09:13:41.373Z,25
2016-07-27T09:14:41.365Z,25
2016-07-27T09:15:41.418Z,25
2016-07-27T09:16:41.434Z,25
2016-07-27T09:17:41.409Z,25
2016-07-27T09:18:41.444Z,25
2016-07-27T09:19:41.424Z,25
2016-07-27T09:20:41.395Z,25
2016-07-27T09:21:41.434Z,25
2016-07-27T09:23:41.456Z,30
2016-07-27T09:24:41.439Z,30
2016-07-27T09:25:41.493Z,30
2016-07-27T09:26:41.503Z,30
2016-07-27T09:27:41.525Z,30
2016-07-27T09:28:41.520Z,35
2016-07-27T09:29:41.518Z,35
2016-07-27T09:30:41.556Z,35
2016-07-27T09:31:41.579Z,40
2016-07-27T09:32:41.532Z,40
2016-07-27T09:33:41.625Z,40
2016-07-27T09:34:42.265Z,40
2016-07-27T09:35:41.595Z,45
2016-07-27T09:36:41.611Z,45
2016-07-27T09:37:41.577Z,45
2016-07-27T09:38:42.244Z,50
2016-07-27T09:39:41.604Z,50
2016-07-27T09:40:41.588Z,50
2016-07-27T09:41:41.618Z,50
2016-07-27T09:42:41.610Z,55
2016-07-27T09:43:41.650Z,55
2016-07-27T09:44:41.640Z,55
2016-07-27T09:45:41.681Z,60
2016-07-27T09:46:41.659Z,65
2016-07-27T09:47:41.691Z,60
2016-07-27T09:48:41.690Z,60
2016-07-27T09:49:41.711Z,60
2016-07-27T09:50:41.710Z,75
2016-07-27T09:51:41.700Z,70
2016-07-27T09:52:41.728Z,65
2016-07-27T09:53:41.703Z,75
2016-07-27T09:54:41.737Z,70
2016-07-27T09:55:41.715Z,70
2016-07-27T09:56:41.770Z,70
2016-07-27T09:57:41.791Z,70
2016-07-27T09:58:41.771Z,65
2016-07-27T09:59:41.773Z,65
2016-07-27T10:00:41.820Z,65
2016-07-27T10:01:41.771Z,65
2016-07-27T10:02:41.791Z,50
2016-07-27T10:03:41.810Z,60
2016-07-27T10:04:41.800Z,60
2016-07-27T10:05:41.823Z,55
2016-07-27T10:06:41.846Z,45
2016-07-27T10:07:41.869Z,50
2016-07-27T10:08:41.868Z,55
2016-07-27T10:09:41.888Z,55
2016-07-27T10:10:41.844Z,55
2016-07-27T10:11:41.888Z,55
2016-07-27T10:12:41.874Z,55
2016-07-27T10:13:41.906Z,55
2016-07-27T10:14:41.910Z,55
2016-07-27T10:15:41.951Z,65
2016-07-27T10:16:41.949Z,70
2016-07-27T10:17:41.921Z,70
2016-07-27T10:18:41.915Z,70
2016-07-27T10:19:41.968Z,70
2016-07-27T10:20:41.928Z,70
2016-07-27T10:21:41.932Z,70
2016-07-27T10:22:41.944Z,70
2016-07-27T10:23:41.964Z,65
2016-07-27T10:24:42.017Z,60
2016-07-27T10:25:41.965Z,60
2016-07-27T10:26:42.017Z,60
2016-07-27T10:27:42.008Z,60
2016-07-27T10:28:41.999Z,60
2016-07-27T10:29:42.029Z,65
2016-07-27T10:30:42.043Z,65
2016-07-27T10:31:42.026Z,65
2016-07-27T10:32:42.051Z,65
2016-07-27T10:33:42.087Z,65
2016-07-27T10:34:42.152Z,65
2016-07-27T10:35:42.070Z,70
2016-07-27T10:36:42.100Z,70
2016-07-27T10:37:42.105Z,70
2016-07-27T10:38:42.105Z,70
2016-07-27T10:39:42.110Z,75
2016-07-27T10:40:42.159Z,75
2016-07-27T10:41:42.160Z,75
2016-07-27T10:42:42.141Z,80
2016-07-27T10:43:42.178Z,75
2016-07-27T10:44:42.206Z,65
2016-07-27T10:45:42.181Z,70
2016-07-27T10:46:42.225Z,70
2016-07-27T10:47:42.211Z,75
2016-07-27T10:48:42.221Z,65
2016-07-27T10:49:42.241Z,50
2016-07-27T10:50:42.933Z,40
2016-07-27T10:52:42.260Z,35
2016-07-27T10:53:42.260Z,40
2016-07-27T10:54:42.253Z,40
2016-07-27T10:55:42.268Z,45
2016-07-27T10:56:42.247Z,45
2016-07-27T10:57:42.998Z,45
2016-07-27T10:58:42.248Z,45
2016-07-27T10:59:42.295Z,45
2016-07-27T11:00:42.293Z,45
2016-07-27T11:01:42.314Z,60
2016-07-27T11:02:42.318Z,55
2016-07-27T11:03:42.384Z,60
2016-07-27T11:04:42.307Z,60
2016-07-27T11:05:42.379Z,60
2016-07-27T11:06:42.364Z,60
2016-07-27T11:07:42.414Z,60
2016-07-27T11:08:42.360Z,65
2016-07-27T11:09:42.413Z,65
2016-07-27T11:10:42.394Z,65
2016-07-27T11:11:42.401Z,55
2016-07-27T11:12:43.155Z,45
2016-07-27T11:13:42.417Z,45
2016-07-27T11:14:42.448Z,70
2016-07-27T11:15:42.474Z,75
2016-07-27T11:16:42.511Z,65
2016-07-27T11:17:42.518Z,65
2016-07-27T11:18:42.463Z,65
2016-07-27T11:19:42.518Z,65
2016-07-27T11:20:42.498Z,60
2016-07-27T11:21:42.463Z,40
2016-07-27T11:22:42.501Z,65
2016-07-27T11:23:42.526Z,65
2016-07-27T11:24:42.503Z,55
2016-07-27T11:25:42.598Z,55
2016-07-27T11:26:42.572Z,55
2016-07-27T11:27:42.557Z,55
2016-07-27T11:28:42.576Z,55
2016-07-27T11:29:42.595Z,55
2016-07-27T11:30:42.567Z,55
2016-07-27T11:31:42.616Z,50
2016-07-27T11:32:42.605Z,55
2016-07-27T11:33:42.604Z,55
2016-07-27T11:34:42.786Z,60
2016-07-27T11:35:42.636Z,65
2016-07-27T11:36:42.679Z,65
2016-07-27T11:37:42.647Z,65
2016-07-27T11:38:42.669Z,65
2016-07-27T11:39:43.385Z,65
2016-07-27T11:40:42.707Z,60
2016-07-27T11:41:42.747Z,60
2016-07-27T11:42:42.675Z,55
2016-07-27T11:43:42.720Z,45
2016-07-27T11:44:42.713Z,30
2016-07-27T11:45:42.740Z,25
2016-07-27T11:46:42.726Z,20
2016-07-27T11:47:42.783Z,25
2016-07-27T11:48:42.743Z,20
2016-07-27T11:49:42.784Z,20
2016-07-27T11:50:42.796Z,25
2016-07-27T11:51:42.753Z,50
2016-07-27T11:52:42.819Z,55
2016-07-27T11:53:42.776Z,55
2016-07-27T11:54:42.828Z,55
2016-07-27T11:55:42.800Z,40
2016-07-27T11:56:42.857Z,50
2016-07-27T11:57:42.873Z,50
2016-07-27T11:58:42.861Z,55
2016-07-27T11:59:42.879Z,55
2016-07-27T12:00:42.898Z,60
2016-07-27T12:01:42.865Z,60
2016-07-27T12:02:42.846Z,60
2016-07-27T12:03:42.911Z,60
2016-07-27T12:04:42.914Z,60
2016-07-27T12:05:42.955Z,60
2016-07-27T12:06:42.941Z,60
2016-07-27T12:07:42.949Z,65
2016-07-27T12:08:42.943Z,60
2016-07-27T12:09:42.970Z,60
2016-07-27T12:10:42.962Z,55
2016-07-27T12:11:42.967Z,55
2016-07-27T12:12:42.975Z,45
2016-07-27T12:13:42.996Z,55
2016-07-27T12:14:43.024Z,40
2016-07-27T12:15:43.025Z,35
2016-07-27T12:16:43.066Z,35
2016-07-27T12:17:43.055Z,40
2016-07-27T12:18:43.070Z,40
2016-07-27T12:19:43.059Z,55
2016-07-27T12:20:43.063Z,60
2016-07-27T12:21:43.110Z,55
2016-07-27T12:22:43.085Z,55
2016-07-27T12:23:43.133Z,60
2016-07-27T12:24:43.120Z,60
2016-07-27T12:25:43.143Z,60
2016-07-27T12:26:43.160Z,60
2016-07-27T12:27:43.161Z,40
2016-07-27T12:28:43.213Z,60
2016-07-27T12:29:43.184Z,60
2016-07-27T12:30:43.168Z,55
2016-07-27T12:31:43.154Z,55
2016-07-27T12:32:43.207Z,60
2016-07-27T12:33:43.151Z,60
2016-07-27T12:34:43.236Z,55
2016-07-27T12:35:43.211Z,55
2016-07-27T12:36:43.242Z,55
2016-07-27T12:37:43.206Z,55
2016-07-27T12:38:43.228Z,55
2016-07-27T12:39:43.267Z,55
2016-07-27T12:40:43.253Z,55
2016-07-27T12:41:43.281Z,55
2016-07-27T12:42:43.278Z,55
2016-07-27T12:43:43.981Z,50
2016-07-27T12:44:43.310Z,35
2016-07-27T12:45:43.283Z,35
2016-07-27T12:46:43.301Z,45
2016-07-27T12:47:43.354Z,55
2016-07-27T12:48:43.359Z,55
2016-07-27T12:49:43.353Z,55
2016-07-27T12:50:43.364Z,35
2016-07-27T12:51:43.371Z,30
2016-07-27T12:52:43.420Z,30
2016-07-27T12:53:43.403Z,50
2016-07-27T12:54:43.394Z,55
2016-07-27T12:55:43.419Z,55
2016-07-27T12:56:43.385Z,55
2016-07-27T12:57:43.429Z,55
2016-07-27T12:58:43.463Z,35
2016-07-27T12:59:43.469Z,35
2016-07-27T13:00:43.423Z,30
2016-07-27T13:01:43.499Z,30
2016-07-27T13:02:43.493Z,25
2016-07-27T13:03:43.469Z,25
2016-07-27T13:04:43.527Z,25
2016-07-27T13:05:44.211Z,20
2016-07-27T13:06:43.522Z,20
2016-07-27T13:07:43.540Z,15
2016-07-27T13:08:43.531Z,15
2016-07-27T13:09:43.553Z,20
2016-07-27T13:10:43.603Z,20
2016-07-27T13:11:43.574Z,25
2016-07-27T13:12:43.579Z,55
2016-07-27T13:13:43.635Z,50
2016-07-27T13:14:43.581Z,45
2016-07-27T13:15:43.582Z,65
2016-07-27T13:16:43.569Z,70
2016-07-27T13:17:43.649Z,65
2016-07-27T13:18:43.600Z,65
2016-07-27T13:19:43.654Z,65
2016-07-27T13:20:44.387Z,65
2016-07-27T13:21:43.650Z,65
2016-07-27T13:22:43.730Z,60
2016-07-27T13:23:43.661Z,60
2016-07-27T13:24:43.686Z,60
2016-07-27T13:25:43.721Z,55
2016-07-27T13:26:43.675Z,50
2016-07-27T13:27:43.677Z,55
2016-07-27T13:28:43.758Z,45
2016-07-27T13:29:43.734Z,40
2016-07-27T13:30:43.723Z,40
2016-07-27T13:31:44.466Z,40
2016-07-27T13:32:43.801Z,45
2016-07-27T13:33:43.773Z,40
2016-07-27T13:34:43.801Z,40
2016-07-27T13:35:43.825Z,35
2016-07-27T13:36:44.006Z,35
2016-07-27T13:37:43.868Z,30
2016-07-27T13:38:43.819Z,30
2016-07-27T13:39:44.600Z,35
2016-07-27T13:40:43.893Z,45
2016-07-27T13:41:43.883Z,45
2016-07-27T13:42:43.851Z,45
2016-07-27T13:43:43.896Z,40
2016-07-27T13:44:43.859Z,40
2016-07-27T13:45:43.908Z,40
2016-07-27T13:46:43.882Z,50
2016-07-27T13:47:43.900Z,50
2016-07-27T13:48:43.965Z,55
2016-07-27T13:49:43.923Z,60
2016-07-27T13:50:43.966Z,60
2016-07-27T13:51:44.681Z,40
2016-07-27T13:52:43.934Z,40
2016-07-27T13:53:43.992Z,35
2016-07-27T13:55:43.986Z,40
2016-07-27T13:56:44.038Z,45
2016-07-27T13:57:44.018Z,50
2016-07-27T13:58:44.026Z,45
2016-07-27T13:59:44.034Z,45
2016-07-27T14:00:44.048Z,30
2016-07-27T14:01:44.095Z,25
2016-07-27T14:02:44.069Z,25
2016-07-27T14:03:44.725Z,30
2016-07-27T14:04:44.089Z,40
2016-07-27T14:05:44.109Z,40
2016-07-27T14:06:44.099Z,40
2016-07-27T14:07:44.103Z,35
2016-07-27T14:08:44.158Z,35
2016-07-27T14:09:44.124Z,25
2016-07-27T14:10:44.145Z,25
2016-07-27T14:11:44.148Z,25
2016-07-27T14:12:44.163Z,40
2016-07-27T14:13:44.147Z,45
2016-07-27T14:14:44.178Z,50
2016-07-27T14:15:44.227Z,45
2016-07-27T14:16:44.238Z,45
2016-07-27T14:17:44.188Z,45
2016-07-27T14:18:44.211Z,40
2016-07-27T14:19:44.241Z,45
2016-07-27T14:20:44.258Z,45
2016-07-27T14:21:44.290Z,50
2016-07-27T14:22:44.267Z,45
2016-07-27T14:23:44.268Z,40
2016-07-27T14:24:44.309Z,35
2016-07-27T14:25:44.275Z,35
2016-07-27T14:26:44.345Z,35
2016-07-27T14:27:44.313Z,35
2016-07-27T14:28:44.346Z,35
2016-07-27T14:29:44.315Z,35
2016-07-27T14:30:44.319Z,45
2016-07-27T14:31:44.342Z,45
2016-07-27T14:32:44.375Z,45
2016-07-27T14:33:44.374Z,35
2016-07-27T14:34:44.419Z,35
2016-07-27T14:35:44.375Z,30